sensor_id;sensor_type;location;lat;lon;timestamp;P1;durP1;ratioP1;P2;durP2;ratioP2
74626;SDS011;63132;52.268;5.192;2024-03-08T00:01:13;67.25;;;29.15;;
74626;SDS011;63132;52.268;5.192;2024-03-08T00:03:39;68.50;;;29.43;;
74626;SDS011;63132;52.268;5.192;2024-03-08T00:08:31;75.90;;;28.70;;
74626;SDS011;63132;52.268;5.192;2024-03-08T00:10:56;56.93;;;26.63;;
74626;SDS011;63132;52.268;5.192;2024-03-08T00:13:21;63.73;;;28.60;;
74626;SDS011;63132;52.268;5.192;2024-03-08T00:15:47;63.43;;;28.10;;
74626;SDS011;63132;52.268;5.192;2024-03-08T00:18:12;62.33;;;28.85;;
74626;SDS011;63132;52.268;5.192;2024-03-08T00:20:37;67.03;;;29.93;;
74626;SDS011;63132;52.268;5.192;2024-03-08T00:23:03;63.40;;;27.70;;
74626;SDS011;63132;52.268;5.192;2024-03-08T00:25:28;69.40;;;28.42;;
74626;SDS011;63132;52.268;5.192;2024-03-08T00:27:54;70.07;;;29.17;;
74626;SDS011;63132;52.268;5.192;2024-03-08T00:30:22;69.55;;;30.13;;
74626;SDS011;63132;52.268;5.192;2024-03-08T00:32:50;65.32;;;29.45;;
74626;SDS011;63132;52.268;5.192;2024-03-08T00:35:15;62.40;;;28.60;;
74626;SDS011;63132;52.268;5.192;2024-03-08T00:37:40;57.10;;;27.13;;
74626;SDS011;63132;52.268;5.192;2024-03-08T00:40:12;57.97;;;27.55;;
74626;SDS011;63132;52.268;5.192;2024-03-08T00:42:38;64.88;;;27.63;;
74626;SDS011;63132;52.268;5.192;2024-03-08T00:45:04;58.83;;;27.77;;
74626;SDS011;63132;52.268;5.192;2024-03-08T00:47:30;63.85;;;28.42;;
74626;SDS011;63132;52.268;5.192;2024-03-08T00:49:56;64.22;;;28.13;;
74626;SDS011;63132;52.268;5.192;2024-03-08T00:52:21;59.15;;;27.40;;
74626;SDS011;63132;52.268;5.192;2024-03-08T00:54:49;66.03;;;26.92;;
74626;SDS011;63132;52.268;5.192;2024-03-08T00:57:14;60.30;;;28.10;;
74626;SDS011;63132;52.268;5.192;2024-03-08T00:59:39;68.20;;;30.40;;
74626;SDS011;63132;52.268;5.192;2024-03-08T01:02:05;60.97;;;27.50;;
74626;SDS011;63132;52.268;5.192;2024-03-08T01:04:31;61.17;;;28.52;;
74626;SDS011;63132;52.268;5.192;2024-03-08T01:06:57;63.83;;;28.02;;
74626;SDS011;63132;52.268;5.192;2024-03-08T01:09:23;64.68;;;28.77;;
74626;SDS011;63132;52.268;5.192;2024-03-08T01:11:48;61.15;;;28.10;;
74626;SDS011;63132;52.268;5.192;2024-03-08T01:14:14;59.85;;;27.13;;
74626;SDS011;63132;52.268;5.192;2024-03-08T01:16:40;55.73;;;27.97;;
74626;SDS011;63132;52.268;5.192;2024-03-08T01:19:06;56.30;;;25.25;;
74626;SDS011;63132;52.268;5.192;2024-03-08T01:21:31;55.72;;;27.13;;
74626;SDS011;63132;52.268;5.192;2024-03-08T01:23:57;60.80;;;28.48;;
74626;SDS011;63132;52.268;5.192;2024-03-08T01:26:22;59.93;;;26.57;;
74626;SDS011;63132;52.268;5.192;2024-03-08T01:28:48;55.73;;;27.53;;
74626;SDS011;63132;52.268;5.192;2024-03-08T01:31:14;53.00;;;25.70;;
74626;SDS011;63132;52.268;5.192;2024-03-08T01:36:06;53.90;;;25.92;;
74626;SDS011;63132;52.268;5.192;2024-03-08T01:38:31;57.37;;;26.43;;
74626;SDS011;63132;52.268;5.192;2024-03-08T01:40:57;55.22;;;25.90;;
74626;SDS011;63132;52.268;5.192;2024-03-08T01:43:25;65.50;;;27.27;;
74626;SDS011;63132;52.268;5.192;2024-03-08T01:45:58;58.90;;;27.98;;
74626;SDS011;63132;52.268;5.192;2024-03-08T01:48:24;59.97;;;28.92;;
74626;SDS011;63132;52.268;5.192;2024-03-08T01:50:51;54.72;;;26.25;;
74626;SDS011;63132;52.268;5.192;2024-03-08T01:53:19;62.75;;;27.70;;
74626;SDS011;63132;52.268;5.192;2024-03-08T01:55:45;59.63;;;28.00;;
74626;SDS011;63132;52.268;5.192;2024-03-08T01:58:13;54.58;;;26.05;;
74626;SDS011;63132;52.268;5.192;2024-03-08T02:00:43;53.67;;;25.02;;
74626;SDS011;63132;52.268;5.192;2024-03-08T02:03:10;56.42;;;26.55;;
74626;SDS011;63132;52.268;5.192;2024-03-08T02:05:36;62.03;;;28.58;;
74626;SDS011;63132;52.268;5.192;2024-03-08T02:08:03;58.83;;;27.70;;
74626;SDS011;63132;52.268;5.192;2024-03-08T02:10:30;61.53;;;28.08;;
74626;SDS011;63132;52.268;5.192;2024-03-08T02:12:57;56.30;;;26.77;;
74626;SDS011;63132;52.268;5.192;2024-03-08T02:15:23;52.90;;;26.13;;
74626;SDS011;63132;52.268;5.192;2024-03-08T02:17:48;56.07;;;25.97;;
74626;SDS011;63132;52.268;5.192;2024-03-08T02:20:14;55.25;;;26.05;;
74626;SDS011;63132;52.268;5.192;2024-03-08T02:22:39;58.30;;;26.92;;
74626;SDS011;63132;52.268;5.192;2024-03-08T02:25:04;58.30;;;28.47;;
74626;SDS011;63132;52.268;5.192;2024-03-08T02:27:31;59.00;;;27.25;;
74626;SDS011;63132;52.268;5.192;2024-03-08T02:29:57;60.80;;;28.10;;
74626;SDS011;63132;52.268;5.192;2024-03-08T02:32:25;53.95;;;27.10;;
74626;SDS011;63132;52.268;5.192;2024-03-08T02:34:51;57.70;;;29.27;;
74626;SDS011;63132;52.268;5.192;2024-03-08T02:37:20;60.35;;;28.63;;
74626;SDS011;63132;52.268;5.192;2024-03-08T02:39:46;53.97;;;27.20;;
74626;SDS011;63132;52.268;5.192;2024-03-08T02:42:11;55.80;;;27.70;;
74626;SDS011;63132;52.268;5.192;2024-03-08T02:44:37;60.88;;;27.75;;
74626;SDS011;63132;52.268;5.192;2024-03-08T02:47:02;62.87;;;30.27;;
74626;SDS011;63132;52.268;5.192;2024-03-08T02:49:28;63.03;;;29.17;;
74626;SDS011;63132;52.268;5.192;2024-03-08T02:51:53;62.35;;;29.65;;
74626;SDS011;63132;52.268;5.192;2024-03-08T02:54:19;60.77;;;29.00;;
74626;SDS011;63132;52.268;5.192;2024-03-08T02:56:45;60.70;;;27.40;;
74626;SDS011;63132;52.268;5.192;2024-03-08T03:01:42;56.08;;;26.40;;
74626;SDS011;63132;52.268;5.192;2024-03-08T03:04:08;60.72;;;28.13;;
74626;SDS011;63132;52.268;5.192;2024-03-08T03:06:33;59.77;;;28.37;;
74626;SDS011;63132;52.268;5.192;2024-03-08T03:08:58;61.65;;;28.58;;
74626;SDS011;63132;52.268;5.192;2024-03-08T03:11:24;68.47;;;31.47;;
74626;SDS011;63132;52.268;5.192;2024-03-08T03:13:49;63.07;;;27.87;;
74626;SDS011;63132;52.268;5.192;2024-03-08T03:16:20;66.00;;;28.53;;
74626;SDS011;63132;52.268;5.192;2024-03-08T03:18:46;62.25;;;28.85;;
74626;SDS011;63132;52.268;5.192;2024-03-08T03:21:12;60.15;;;30.85;;
74626;SDS011;63132;52.268;5.192;2024-03-08T03:23:38;63.55;;;28.83;;
74626;SDS011;63132;52.268;5.192;2024-03-08T03:26:05;54.75;;;27.70;;
74626;SDS011;63132;52.268;5.192;2024-03-08T03:28:32;57.50;;;27.58;;
74626;SDS011;63132;52.268;5.192;2024-03-08T03:30:58;61.15;;;30.20;;
74626;SDS011;63132;52.268;5.192;2024-03-08T03:33:23;63.00;;;29.85;;
74626;SDS011;63132;52.268;5.192;2024-03-08T03:35:49;60.10;;;28.63;;
74626;SDS011;63132;52.268;5.192;2024-03-08T03:38:17;64.05;;;29.48;;
74626;SDS011;63132;52.268;5.192;2024-03-08T03:40:42;61.30;;;29.33;;
74626;SDS011;63132;52.268;5.192;2024-03-08T03:43:10;59.03;;;29.48;;
74626;SDS011;63132;52.268;5.192;2024-03-08T03:45:36;67.55;;;28.83;;
74626;SDS011;63132;52.268;5.192;2024-03-08T03:48:05;60.33;;;29.88;;
74626;SDS011;63132;52.268;5.192;2024-03-08T03:50:31;61.22;;;28.08;;
74626;SDS011;63132;52.268;5.192;2024-03-08T03:52:59;60.97;;;28.27;;
74626;SDS011;63132;52.268;5.192;2024-03-08T03:55:24;61.23;;;28.77;;
74626;SDS011;63132;52.268;5.192;2024-03-08T03:57:50;60.03;;;28.52;;
74626;SDS011;63132;52.268;5.192;2024-03-08T04:00:15;64.87;;;30.27;;
74626;SDS011;63132;52.268;5.192;2024-03-08T04:02:41;60.60;;;30.38;;
74626;SDS011;63132;52.268;5.192;2024-03-08T04:05:07;67.68;;;32.33;;
74626;SDS011;63132;52.268;5.192;2024-03-08T04:07:33;67.55;;;30.48;;
74626;SDS011;63132;52.268;5.192;2024-03-08T04:10:00;66.28;;;30.60;;
74626;SDS011;63132;52.268;5.192;2024-03-08T04:12:31;64.40;;;31.15;;
74626;SDS011;63132;52.268;5.192;2024-03-08T04:14:57;63.88;;;29.73;;
74626;SDS011;63132;52.268;5.192;2024-03-08T04:17:22;71.80;;;32.43;;
74626;SDS011;63132;52.268;5.192;2024-03-08T04:19:49;64.15;;;30.92;;
74626;SDS011;63132;52.268;5.192;2024-03-08T04:22:14;71.35;;;31.40;;
74626;SDS011;63132;52.268;5.192;2024-03-08T04:24:40;67.57;;;30.20;;
74626;SDS011;63132;52.268;5.192;2024-03-08T04:27:06;63.30;;;29.90;;
74626;SDS011;63132;52.268;5.192;2024-03-08T04:29:31;69.65;;;32.13;;
74626;SDS011;63132;52.268;5.192;2024-03-08T04:34:23;72.30;;;30.15;;
74626;SDS011;63132;52.268;5.192;2024-03-08T04:36:49;66.00;;;30.95;;
74626;SDS011;63132;52.268;5.192;2024-03-08T04:39:14;61.78;;;30.42;;
74626;SDS011;63132;52.268;5.192;2024-03-08T04:41:40;65.95;;;29.98;;
74626;SDS011;63132;52.268;5.192;2024-03-08T04:44:08;59.13;;;29.77;;
74626;SDS011;63132;52.268;5.192;2024-03-08T04:46:34;60.45;;;28.63;;
74626;SDS011;63132;52.268;5.192;2024-03-08T04:49:00;59.17;;;30.27;;
74626;SDS011;63132;52.268;5.192;2024-03-08T04:51:25;62.83;;;30.95;;
74626;SDS011;63132;52.268;5.192;2024-03-08T04:53:51;64.93;;;29.00;;
74626;SDS011;63132;52.268;5.192;2024-03-08T04:56:16;68.07;;;29.60;;
74626;SDS011;63132;52.268;5.192;2024-03-08T04:58:44;57.53;;;30.33;;
74626;SDS011;63132;52.268;5.192;2024-03-08T05:01:12;58.17;;;29.45;;
74626;SDS011;63132;52.268;5.192;2024-03-08T05:03:37;61.88;;;30.17;;
74626;SDS011;63132;52.268;5.192;2024-03-08T05:06:03;64.65;;;31.70;;
74626;SDS011;63132;52.268;5.192;2024-03-08T05:08:29;62.15;;;30.27;;
74626;SDS011;63132;52.268;5.192;2024-03-08T05:10:54;62.50;;;30.87;;
74626;SDS011;63132;52.268;5.192;2024-03-08T05:13:19;63.17;;;30.07;;
74626;SDS011;63132;52.268;5.192;2024-03-08T05:15:48;53.00;;;28.10;;
74626;SDS011;63132;52.268;5.192;2024-03-08T05:18:14;60.97;;;29.98;;
74626;SDS011;63132;52.268;5.192;2024-03-08T05:20:40;62.17;;;31.73;;
74626;SDS011;63132;52.268;5.192;2024-03-08T05:23:06;63.30;;;31.73;;
74626;SDS011;63132;52.268;5.192;2024-03-08T05:25:32;62.35;;;31.98;;
74626;SDS011;63132;52.268;5.192;2024-03-08T05:27:57;64.25;;;30.60;;
74626;SDS011;63132;52.268;5.192;2024-03-08T05:30:23;64.53;;;30.65;;
74626;SDS011;63132;52.268;5.192;2024-03-08T05:32:48;59.43;;;30.07;;
74626;SDS011;63132;52.268;5.192;2024-03-08T05:35:13;60.47;;;29.73;;
74626;SDS011;63132;52.268;5.192;2024-03-08T05:37:41;60.45;;;30.08;;
74626;SDS011;63132;52.268;5.192;2024-03-08T05:40:07;62.10;;;31.27;;
74626;SDS011;63132;52.268;5.192;2024-03-08T05:42:37;63.35;;;29.52;;
74626;SDS011;63132;52.268;5.192;2024-03-08T05:45:03;60.25;;;30.08;;
74626;SDS011;63132;52.268;5.192;2024-03-08T05:47:29;63.40;;;31.02;;
74626;SDS011;63132;52.268;5.192;2024-03-08T05:49:54;64.10;;;30.80;;
74626;SDS011;63132;52.268;5.192;2024-03-08T05:52:19;64.30;;;32.63;;
74626;SDS011;63132;52.268;5.192;2024-03-08T05:54:44;62.03;;;32.00;;
74626;SDS011;63132;52.268;5.192;2024-03-08T05:57:11;64.13;;;31.98;;
74626;SDS011;63132;52.268;5.192;2024-03-08T05:59:36;60.15;;;30.55;;
74626;SDS011;63132;52.268;5.192;2024-03-08T06:02:02;64.22;;;33.13;;
74626;SDS011;63132;52.268;5.192;2024-03-08T06:04:28;63.65;;;30.80;;
74626;SDS011;63132;52.268;5.192;2024-03-08T06:06:54;59.20;;;30.67;;
74626;SDS011;63132;52.268;5.192;2024-03-08T06:09:20;58.42;;;30.40;;
74626;SDS011;63132;52.268;5.192;2024-03-08T06:11:48;63.15;;;31.08;;
74626;SDS011;63132;52.268;5.192;2024-03-08T06:14:13;61.70;;;31.33;;
74626;SDS011;63132;52.268;5.192;2024-03-08T06:16:41;63.10;;;31.25;;
74626;SDS011;63132;52.268;5.192;2024-03-08T06:19:06;64.90;;;31.97;;
74626;SDS011;63132;52.268;5.192;2024-03-08T06:21:32;61.38;;;30.80;;
74626;SDS011;63132;52.268;5.192;2024-03-08T06:23:58;61.53;;;32.87;;
74626;SDS011;63132;52.268;5.192;2024-03-08T06:26:23;60.70;;;31.80;;
74626;SDS011;63132;52.268;5.192;2024-03-08T06:28:50;65.25;;;30.23;;
74626;SDS011;63132;52.268;5.192;2024-03-08T06:31:16;61.42;;;30.77;;
74626;SDS011;63132;52.268;5.192;2024-03-08T06:33:41;67.90;;;33.25;;
74626;SDS011;63132;52.268;5.192;2024-03-08T06:36:06;66.03;;;32.60;;
74626;SDS011;63132;52.268;5.192;2024-03-08T06:38:32;61.23;;;30.57;;
74626;SDS011;63132;52.268;5.192;2024-03-08T06:40:57;55.97;;;29.03;;
74626;SDS011;63132;52.268;5.192;2024-03-08T06:43:23;57.67;;;28.40;;
74626;SDS011;63132;52.268;5.192;2024-03-08T06:45:50;64.90;;;32.08;;
74626;SDS011;63132;52.268;5.192;2024-03-08T06:48:18;62.70;;;30.33;;
74626;SDS011;63132;52.268;5.192;2024-03-08T06:50:44;57.10;;;28.83;;
74626;SDS011;63132;52.268;5.192;2024-03-08T06:53:12;59.33;;;30.17;;
74626;SDS011;63132;52.268;5.192;2024-03-08T06:55:38;59.22;;;29.27;;
74626;SDS011;63132;52.268;5.192;2024-03-08T06:58:04;55.25;;;30.05;;
74626;SDS011;63132;52.268;5.192;2024-03-08T07:00:29;57.07;;;29.77;;
74626;SDS011;63132;52.268;5.192;2024-03-08T07:02:55;51.25;;;27.58;;
74626;SDS011;63132;52.268;5.192;2024-03-08T07:05:22;56.30;;;29.45;;
74626;SDS011;63132;52.268;5.192;2024-03-08T07:07:49;54.72;;;29.92;;
74626;SDS011;63132;52.268;5.192;2024-03-08T07:10:16;57.55;;;28.00;;
74626;SDS011;63132;52.268;5.192;2024-03-08T07:12:42;58.72;;;28.48;;
74626;SDS011;63132;52.268;5.192;2024-03-08T07:15:07;57.05;;;28.30;;
74626;SDS011;63132;52.268;5.192;2024-03-08T07:17:33;55.30;;;29.17;;
74626;SDS011;63132;52.268;5.192;2024-03-08T07:20:00;53.28;;;28.83;;
74626;SDS011;63132;52.268;5.192;2024-03-08T07:22:28;52.00;;;28.20;;
74626;SDS011;63132;52.268;5.192;2024-03-08T07:24:54;53.53;;;28.73;;
74626;SDS011;63132;52.268;5.192;2024-03-08T07:27:19;57.07;;;29.93;;
74626;SDS011;63132;52.268;5.192;2024-03-08T07:29:44;49.73;;;27.90;;
74626;SDS011;63132;52.268;5.192;2024-03-08T07:32:10;55.60;;;28.95;;
74626;SDS011;63132;52.268;5.192;2024-03-08T07:34:50;54.60;;;28.50;;
74626;SDS011;63132;52.268;5.192;2024-03-08T07:37:16;53.75;;;29.15;;
74626;SDS011;63132;52.268;5.192;2024-03-08T07:39:42;59.88;;;29.27;;
74626;SDS011;63132;52.268;5.192;2024-03-08T07:42:08;63.55;;;30.05;;
74626;SDS011;63132;52.268;5.192;2024-03-08T07:44:34;49.05;;;26.85;;
74626;SDS011;63132;52.268;5.192;2024-03-08T07:47:00;58.20;;;28.60;;
74626;SDS011;63132;52.268;5.192;2024-03-08T07:49:25;52.07;;;27.17;;
74626;SDS011;63132;52.268;5.192;2024-03-08T07:51:50;47.93;;;26.83;;
74626;SDS011;63132;52.268;5.192;2024-03-08T07:54:17;52.67;;;28.52;;
74626;SDS011;63132;52.268;5.192;2024-03-08T07:56:42;51.10;;;28.70;;
74626;SDS011;63132;52.268;5.192;2024-03-08T07:59:08;54.90;;;27.43;;
74626;SDS011;63132;52.268;5.192;2024-03-08T08:01:33;50.33;;;28.17;;
74626;SDS011;63132;52.268;5.192;2024-03-08T08:03:59;54.72;;;28.60;;
74626;SDS011;63132;52.268;5.192;2024-03-08T08:06:26;50.33;;;27.13;;
74626;SDS011;63132;52.268;5.192;2024-03-08T08:08:51;49.45;;;26.80;;
74626;SDS011;63132;52.268;5.192;2024-03-08T08:11:17;53.07;;;27.47;;
74626;SDS011;63132;52.268;5.192;2024-03-08T08:13:42;52.35;;;29.08;;
74626;SDS011;63132;52.268;5.192;2024-03-08T08:16:08;54.35;;;27.73;;
74626;SDS011;63132;52.268;5.192;2024-03-08T08:18:34;48.75;;;27.33;;
74626;SDS011;63132;52.268;5.192;2024-03-08T08:21:00;45.22;;;26.42;;
74626;SDS011;63132;52.268;5.192;2024-03-08T08:23:25;53.00;;;27.80;;
74626;SDS011;63132;52.268;5.192;2024-03-08T08:25:51;48.30;;;26.33;;
74626;SDS011;63132;52.268;5.192;2024-03-08T08:28:16;53.53;;;27.37;;
74626;SDS011;63132;52.268;5.192;2024-03-08T08:30:43;53.83;;;28.50;;
74626;SDS011;63132;52.268;5.192;2024-03-08T08:33:09;47.38;;;27.65;;
74626;SDS011;63132;52.268;5.192;2024-03-08T08:35:35;46.78;;;26.38;;
74626;SDS011;63132;52.268;5.192;2024-03-08T08:38:02;49.78;;;24.80;;
74626;SDS011;63132;52.268;5.192;2024-03-08T08:42:55;52.03;;;25.52;;
74626;SDS011;63132;52.268;5.192;2024-03-08T08:45:22;47.53;;;24.85;;
74626;SDS011;63132;52.268;5.192;2024-03-08T08:47:48;49.73;;;25.97;;
74626;SDS011;63132;52.268;5.192;2024-03-08T08:50:14;47.75;;;25.15;;
74626;SDS011;63132;52.268;5.192;2024-03-08T08:52:41;42.95;;;24.65;;
74626;SDS011;63132;52.268;5.192;2024-03-08T08:55:08;44.05;;;25.92;;
74626;SDS011;63132;52.268;5.192;2024-03-08T08:57:34;47.20;;;26.35;;
74626;SDS011;63132;52.268;5.192;2024-03-08T09:00:00;51.75;;;25.48;;
74626;SDS011;63132;52.268;5.192;2024-03-08T09:02:26;45.85;;;25.92;;
74626;SDS011;63132;52.268;5.192;2024-03-08T09:04:52;50.30;;;27.17;;
74626;SDS011;63132;52.268;5.192;2024-03-08T09:07:17;45.87;;;25.10;;
74626;SDS011;63132;52.268;5.192;2024-03-08T09:09:44;44.10;;;24.77;;
74626;SDS011;63132;52.268;5.192;2024-03-08T09:12:09;50.35;;;25.98;;
74626;SDS011;63132;52.268;5.192;2024-03-08T09:14:38;49.22;;;25.45;;
74626;SDS011;63132;52.268;5.192;2024-03-08T09:17:05;48.60;;;26.30;;
74626;SDS011;63132;52.268;5.192;2024-03-08T09:19:31;46.90;;;25.30;;
74626;SDS011;63132;52.268;5.192;2024-03-08T09:21:57;46.30;;;25.55;;
74626;SDS011;63132;52.268;5.192;2024-03-08T09:24:22;47.03;;;26.23;;
74626;SDS011;63132;52.268;5.192;2024-03-08T09:26:48;50.07;;;26.97;;
74626;SDS011;63132;52.268;5.192;2024-03-08T09:29:13;45.67;;;26.10;;
74626;SDS011;63132;52.268;5.192;2024-03-08T09:34:05;48.45;;;25.38;;
74626;SDS011;63132;52.268;5.192;2024-03-08T09:36:33;52.28;;;26.83;;
74626;SDS011;63132;52.268;5.192;2024-03-08T09:38:58;43.60;;;25.13;;
74626;SDS011;63132;52.268;5.192;2024-03-08T09:41:25;41.67;;;24.33;;
74626;SDS011;63132;52.268;5.192;2024-03-08T09:43:51;46.15;;;25.95;;
74626;SDS011;63132;52.268;5.192;2024-03-08T09:46:16;46.53;;;26.00;;
74626;SDS011;63132;52.268;5.192;2024-03-08T09:48:44;44.55;;;25.25;;
74626;SDS011;63132;52.268;5.192;2024-03-08T09:51:11;46.55;;;24.42;;
74626;SDS011;63132;52.268;5.192;2024-03-08T09:53:40;43.42;;;25.13;;
74626;SDS011;63132;52.268;5.192;2024-03-08T09:56:07;46.15;;;25.48;;
74626;SDS011;63132;52.268;5.192;2024-03-08T09:58:33;44.45;;;25.38;;
74626;SDS011;63132;52.268;5.192;2024-03-08T10:00:58;47.47;;;25.77;;
74626;SDS011;63132;52.268;5.192;2024-03-08T10:03:27;43.78;;;24.80;;
74626;SDS011;63132;52.268;5.192;2024-03-08T10:05:53;45.17;;;24.42;;
74626;SDS011;63132;52.268;5.192;2024-03-08T10:08:21;45.97;;;25.75;;
74626;SDS011;63132;52.268;5.192;2024-03-08T10:10:47;43.80;;;24.23;;
74626;SDS011;63132;52.268;5.192;2024-03-08T10:13:12;42.25;;;24.75;;
74626;SDS011;63132;52.268;5.192;2024-03-08T10:18:05;45.08;;;21.92;;
74626;SDS011;63132;52.268;5.192;2024-03-08T10:20:31;39.30;;;22.67;;
74626;SDS011;63132;52.268;5.192;2024-03-08T10:23:02;39.28;;;23.13;;
74626;SDS011;63132;52.268;5.192;2024-03-08T10:25:30;40.75;;;23.55;;
74626;SDS011;63132;52.268;5.192;2024-03-08T10:27:56;41.28;;;23.02;;
74626;SDS011;63132;52.268;5.192;2024-03-08T10:30:21;42.22;;;23.38;;
74626;SDS011;63132;52.268;5.192;2024-03-08T10:32:47;39.92;;;23.15;;
74626;SDS011;63132;52.268;5.192;2024-03-08T10:35:13;42.40;;;23.50;;
74626;SDS011;63132;52.268;5.192;2024-03-08T10:37:48;43.67;;;23.60;;
74626;SDS011;63132;52.268;5.192;2024-03-08T10:40:22;37.97;;;23.35;;
74626;SDS011;63132;52.268;5.192;2024-03-08T10:45:23;41.35;;;23.50;;
74626;SDS011;63132;52.268;5.192;2024-03-08T10:48:00;39.40;;;21.58;;
74626;SDS011;63132;52.268;5.192;2024-03-08T10:50:35;34.08;;;21.60;;
74626;SDS011;63132;52.268;5.192;2024-03-08T10:53:01;34.20;;;21.70;;
74626;SDS011;63132;52.268;5.192;2024-03-08T10:55:28;38.17;;;21.98;;
74626;SDS011;63132;52.268;5.192;2024-03-08T10:57:53;36.25;;;21.90;;
74626;SDS011;63132;52.268;5.192;2024-03-08T11:00:19;34.88;;;21.20;;
74626;SDS011;63132;52.268;5.192;2024-03-08T11:02:51;38.92;;;22.33;;
74626;SDS011;63132;52.268;5.192;2024-03-08T11:10:48;38.13;;;20.10;;
74626;SDS011;63132;52.268;5.192;2024-03-08T11:16:00;35.85;;;21.23;;
74626;SDS011;63132;52.268;5.192;2024-03-08T11:18:26;32.55;;;20.20;;
74626;SDS011;63132;52.268;5.192;2024-03-08T11:20:54;35.53;;;22.15;;
74626;SDS011;63132;52.268;5.192;2024-03-08T11:23:22;35.67;;;21.05;;
74626;SDS011;63132;52.268;5.192;2024-03-08T11:25:48;36.08;;;21.17;;
74626;SDS011;63132;52.268;5.192;2024-03-08T11:28:21;36.55;;;21.60;;
74626;SDS011;63132;52.268;5.192;2024-03-08T11:33:23;36.78;;;22.10;;
74626;SDS011;63132;52.268;5.192;2024-03-08T11:35:51;38.10;;;22.70;;
74626;SDS011;63132;52.268;5.192;2024-03-08T11:38:17;33.30;;;21.20;;
74626;SDS011;63132;52.268;5.192;2024-03-08T11:40:45;34.00;;;20.80;;
74626;SDS011;63132;52.268;5.192;2024-03-08T11:43:11;38.10;;;21.02;;
74626;SDS011;63132;52.268;5.192;2024-03-08T11:45:36;35.87;;;20.90;;
74626;SDS011;63132;52.268;5.192;2024-03-08T11:48:02;37.57;;;22.10;;
74626;SDS011;63132;52.268;5.192;2024-03-08T11:50:29;34.88;;;20.40;;
74626;SDS011;63132;52.268;5.192;2024-03-08T11:52:59;33.63;;;19.85;;
74626;SDS011;63132;52.268;5.192;2024-03-08T11:55:25;35.50;;;21.30;;
74626;SDS011;63132;52.268;5.192;2024-03-08T11:57:58;33.00;;;20.27;;
74626;SDS011;63132;52.268;5.192;2024-03-08T12:00:25;32.95;;;19.08;;
74626;SDS011;63132;52.268;5.192;2024-03-08T12:03:00;35.40;;;19.83;;
74626;SDS011;63132;52.268;5.192;2024-03-08T12:05:27;28.73;;;18.48;;
74626;SDS011;63132;52.268;5.192;2024-03-08T12:07:56;30.17;;;18.83;;
74626;SDS011;63132;52.268;5.192;2024-03-08T12:10:22;35.67;;;19.80;;
74626;SDS011;63132;52.268;5.192;2024-03-08T12:12:48;31.13;;;17.73;;
74626;SDS011;63132;52.268;5.192;2024-03-08T12:15:16;27.42;;;16.48;;
74626;SDS011;63132;52.268;5.192;2024-03-08T12:17:47;29.00;;;16.80;;
74626;SDS011;63132;52.268;5.192;2024-03-08T12:20:19;27.98;;;16.25;;
74626;SDS011;63132;52.268;5.192;2024-03-08T12:22:49;30.13;;;17.42;;
74626;SDS011;63132;52.268;5.192;2024-03-08T12:25:18;27.75;;;17.13;;
74626;SDS011;63132;52.268;5.192;2024-03-08T12:27:44;26.42;;;16.02;;
74626;SDS011;63132;52.268;5.192;2024-03-08T12:30:16;26.08;;;15.77;;
74626;SDS011;63132;52.268;5.192;2024-03-08T12:32:57;25.83;;;16.00;;
74626;SDS011;63132;52.268;5.192;2024-03-08T12:35:24;24.38;;;15.50;;
74626;SDS011;63132;52.268;5.192;2024-03-08T12:37:52;23.08;;;15.52;;
74626;SDS011;63132;52.268;5.192;2024-03-08T12:40:18;25.13;;;15.80;;
74626;SDS011;63132;52.268;5.192;2024-03-08T12:42:50;24.40;;;14.60;;
74626;SDS011;63132;52.268;5.192;2024-03-08T12:45:15;23.83;;;15.40;;
74626;SDS011;63132;52.268;5.192;2024-03-08T12:47:41;30.80;;;15.00;;
74626;SDS011;63132;52.268;5.192;2024-03-08T12:50:07;26.10;;;15.60;;
74626;SDS011;63132;52.268;5.192;2024-03-08T12:52:33;24.67;;;15.07;;
74626;SDS011;63132;52.268;5.192;2024-03-08T12:54:59;24.27;;;14.45;;
74626;SDS011;63132;52.268;5.192;2024-03-08T12:57:31;26.98;;;15.27;;
74626;SDS011;63132;52.268;5.192;2024-03-08T12:59:58;23.92;;;14.35;;
74626;SDS011;63132;52.268;5.192;2024-03-08T13:02:24;25.02;;;15.27;;
74626;SDS011;63132;52.268;5.192;2024-03-08T13:04:51;24.33;;;15.13;;
74626;SDS011;63132;52.268;5.192;2024-03-08T13:07:22;23.85;;;15.20;;
74626;SDS011;63132;52.268;5.192;2024-03-08T13:09:48;28.13;;;16.08;;
74626;SDS011;63132;52.268;5.192;2024-03-08T13:12:14;25.52;;;15.10;;
74626;SDS011;63132;52.268;5.192;2024-03-08T13:14:40;23.42;;;15.07;;
74626;SDS011;63132;52.268;5.192;2024-03-08T13:17:06;27.08;;;15.07;;
74626;SDS011;63132;52.268;5.192;2024-03-08T13:19:35;24.83;;;15.95;;
74626;SDS011;63132;52.268;5.192;2024-03-08T13:22:01;31.80;;;17.30;;
74626;SDS011;63132;52.268;5.192;2024-03-08T13:24:29;26.98;;;16.25;;
74626;SDS011;63132;52.268;5.192;2024-03-08T13:26:55;28.65;;;16.45;;
74626;SDS011;63132;52.268;5.192;2024-03-08T13:29:20;26.25;;;16.15;;
74626;SDS011;63132;52.268;5.192;2024-03-08T13:31:46;27.15;;;16.48;;
74626;SDS011;63132;52.268;5.192;2024-03-08T13:34:14;23.80;;;15.73;;
74626;SDS011;63132;52.268;5.192;2024-03-08T13:36:40;28.45;;;16.83;;
74626;SDS011;63132;52.268;5.192;2024-03-08T13:39:08;28.67;;;17.35;;
74626;SDS011;63132;52.268;5.192;2024-03-08T13:41:40;28.98;;;16.88;;
74626;SDS011;63132;52.268;5.192;2024-03-08T13:44:06;27.42;;;16.20;;
74626;SDS011;63132;52.268;5.192;2024-03-08T13:46:32;26.02;;;16.30;;
74626;SDS011;63132;52.268;5.192;2024-03-08T13:49:02;27.75;;;17.13;;
74626;SDS011;63132;52.268;5.192;2024-03-08T13:51:34;26.42;;;16.52;;
74626;SDS011;63132;52.268;5.192;2024-03-08T13:54:00;25.40;;;15.88;;
74626;SDS011;63132;52.268;5.192;2024-03-08T13:56:25;26.73;;;16.23;;
74626;SDS011;63132;52.268;5.192;2024-03-08T13:58:56;27.92;;;16.52;;
74626;SDS011;63132;52.268;5.192;2024-03-08T14:01:22;28.13;;;16.83;;
74626;SDS011;63132;52.268;5.192;2024-03-08T14:03:47;29.88;;;17.63;;
74626;SDS011;63132;52.268;5.192;2024-03-08T14:06:13;27.20;;;16.50;;
74626;SDS011;63132;52.268;5.192;2024-03-08T14:08:38;30.40;;;16.83;;
74626;SDS011;63132;52.268;5.192;2024-03-08T14:11:04;27.17;;;16.97;;
74626;SDS011;63132;52.268;5.192;2024-03-08T14:13:41;30.50;;;17.08;;
74626;SDS011;63132;52.268;5.192;2024-03-08T14:16:11;29.13;;;17.00;;
74626;SDS011;63132;52.268;5.192;2024-03-08T14:18:36;28.42;;;17.05;;
74626;SDS011;63132;52.268;5.192;2024-03-08T14:21:02;25.80;;;16.55;;
74626;SDS011;63132;52.268;5.192;2024-03-08T14:23:29;26.83;;;16.48;;
74626;SDS011;63132;52.268;5.192;2024-03-08T14:25:54;30.58;;;17.92;;
74626;SDS011;63132;52.268;5.192;2024-03-08T14:28:20;26.83;;;16.92;;
74626;SDS011;63132;52.268;5.192;2024-03-08T14:30:47;28.10;;;17.48;;
74626;SDS011;63132;52.268;5.192;2024-03-08T14:33:13;26.60;;;17.00;;
74626;SDS011;63132;52.268;5.192;2024-03-08T14:35:39;29.90;;;17.02;;
74626;SDS011;63132;52.268;5.192;2024-03-08T14:38:05;27.00;;;17.10;;
74626;SDS011;63132;52.268;5.192;2024-03-08T14:40:35;26.63;;;17.38;;
74626;SDS011;63132;52.268;5.192;2024-03-08T14:43:01;29.58;;;18.17;;
74626;SDS011;63132;52.268;5.192;2024-03-08T14:45:26;28.75;;;17.30;;
74626;SDS011;63132;52.268;5.192;2024-03-08T14:47:52;28.25;;;17.75;;